Time;durP1;ratioP1;P1;durP2;ratioP2;P2;SDS_P1;SDS_P2;PMS_P1;PMS_P2;Temp;Humidity;BMP_temperature;BMP_pressure;BME280_temperature;BME280_humidity;BME280_pressure;Samples;Min_cycle;Max_cycle;Signal;HPM_P1;HPM_P2
2021/05/02 10:02:10;;;;;;;3.85;1.40;;;;;;;19.02;46.90;101822.75;5116214;27;780868;-60
2021/05/02 10:04:41;;;;;;;5.88;1.50;;;;;;;18.96;47.00;101816.13;5109492;28;20032;-61
2021/05/02 10:07:11;;;;;;;4.80;1.50;;;;;;;18.97;46.75;101820.44;5110363;28;20028;-60
2021/05/02 10:11:45;;;;;;;6.40;1.90;;;;;;;18.99;46.71;101823.84;5069388;28;20439;-59
2021/05/02 10:14:11;;;;;;;5.85;1.83;;;;;;;18.97;46.65;101815.16;5069862;28;20061;-60
2021/05/02 10:16:36;;;;;;;3.97;1.50;;;;;;;18.97;46.73;101816.97;5069748;28;20036;-59
2021/05/02 10:19:10;;;;;;;3.80;1.60;;;;;;;18.93;46.95;101818.97;5069612;28;20360;-63
2021/05/02 10:21:39;;;;;;;6.05;2.30;;;;;;;18.90;46.73;101816.56;5069731;28;20032;-61
2021/05/02 10:24:06;;;;;;;4.78;1.40;;;;;;;18.90;46.99;101813.91;5066133;28;20016;-63
2021/05/02 10:26:31;;;;;;;3.03;1.30;;;;;;;18.89;46.92;101819.28;5064313;28;20090;-60
2021/05/02 10:28:57;;;;;;;4.57;1.33;;;;;;;18.91;46.80;101818.22;5066049;28;20025;-63
2021/05/02 10:31:31;;;;;;;3.95;1.27;;;;;;;18.99;47.14;101823.84;5059557;28;20057;-59
2021/05/02 10:33:56;;;;;;;3.30;1.30;;;;;;;19.05;46.84;101827.84;4870849;28;3483687;-61
2021/05/02 10:36:24;;;;;;;6.32;1.73;;;;;;;19.16;46.99;101829.72;4153420;28;10000524;-59
2021/05/02 10:39:00;;;;;;;3.40;1.20;;;;;;;19.21;46.63;101824.97;5035777;28;20425;-60
2021/05/02 10:41:36;;;;;;;3.90;1.60;;;;;;;19.31;46.51;101825.16;5032670;28;20128;-59
2021/05/02 10:44:19;;;;;;;4.00;1.38;;;;;;;19.30;46.41;101826.13;5033249;28;20049;-61
2021/05/02 10:46:53;;;;;;;3.30;1.65;;;;;;;19.36;46.45;101825.69;5027263;28;20045;-62
2021/05/02 10:49:19;;;;;;;;;;;;;;;19.37;46.63;101822.91;4969899;28;1336484;-60
2021/05/02 10:51:46;;;;;;;5.75;1.40;;;;;;;19.35;46.44;101826.63;5014966;28;19943;-59
2021/05/02 10:54:18;;;;;;;3.60;1.40;;;;;;;19.36;46.63;101821.25;5018600;28;20084;-62
2021/05/02 10:56:52;;;;;;;7.13;1.77;;;;;;;19.41;46.73;101820.91;5009009;28;20125;-60
2021/05/02 10:59:19;;;;;;;;;;;;;;;19.42;46.55;101821.75;5020016;28;20022;-60
2021/05/02 11:01:45;;;;;;;2.90;1.40;;;;;;;19.36;46.64;101820.41;4958633;28;1867803;-61
2021/05/02 11:04:11;;;;;;;4.00;1.40;;;;;;;19.27;46.69;101813.97;5049207;28;20022;-59
2021/05/02 11:06:39;;;;;;;2.88;1.10;;;;;;;19.26;46.72;101822.00;5034028;28;20022;-59
2021/05/02 11:09:21;;;;;;;5.65;1.83;;;;;;;19.19;46.87;101817.16;5038183;28;20025;-60
2021/05/02 11:11:58;;;;;;;3.38;1.38;;;;;;;19.13;46.83;101817.56;5035929;28;20064;-61
2021/05/02 11:14:26;;;;;;;5.00;1.33;;;;;;;19.12;46.73;101826.47;5027816;28;20030;-59
2021/05/02 11:16:54;;;;;;;4.18;1.50;;;;;;;19.08;46.74;101821.50;5028220;28;20098;-59
2021/05/02 11:19:21;;;;;;;4.30;1.73;;;;;;;19.08;46.80;101830.25;5027774;28;20029;-62
2021/05/02 11:21:51;;;;;;;5.47;1.50;;;;;;;19.03;46.64;101827.94;5022447;28;20075;-63
2021/05/02 11:24:21;;;;;;;4.22;1.50;;;;;;;19.00;46.75;101835.25;5015311;28;20167;-61
2021/05/02 11:27:16;;;;;;;3.90;1.33;;;;;;;18.96;46.82;101824.06;5015393;28;20046;-58
2021/05/02 11:29:57;;;;;;;5.70;1.80;;;;;;;18.98;46.62;101832.72;5014629;28;20091;-59
2021/05/02 11:32:43;;;;;;;5.10;1.45;;;;;;;18.94;46.55;101831.22;5021531;28;20033;-57
2021/05/02 11:35:38;;;;;;;5.25;1.60;;;;;;;18.95;46.34;101835.56;5015060;28;20385;-60
2021/05/02 11:38:05;;;;;;;4.25;1.45;;;;;;;18.97;46.49;101831.00;5014643;28;20038;-61
2021/05/02 11:40:30;;;;;;;3.30;1.20;;;;;;;19.01;46.23;101842.22;5014959;28;20088;-62
2021/05/02 11:42:58;;;;;;;4.72;1.40;;;;;;;18.98;46.60;101839.78;5014123;28;20026;-60
2021/05/02 11:45:29;;;;;;;5.70;1.55;;;;;;;18.98;46.58;101832.72;4985514;28;20077;-61
2021/05/02 11:47:54;;;;;;;2.78;1.10;;;;;;;18.93;46.70;101840.13;5023482;28;20042;-61
2021/05/02 11:50:21;;;;;;;3.95;1.38;;;;;;;18.89;46.32;101835.16;5013960;28;20028;-61
2021/05/02 11:52:51;;;;;;;5.57;1.58;;;;;;;18.83;46.43;101836.38;5014851;28;20030;-61
2021/05/02 12:09:53;;;;;;;3.92;1.60;;;;;;;18.70;47.13;101870.69;5071920;27;20482;-58
2021/05/02 12:12:18;;;;;;;5.47;1.55;;;;;;;18.74;47.21;101871.31;4976084;28;20079;-63
2021/05/02 12:14:44;;;;;;;4.82;1.55;;;;;;;18.75;47.65;101862.47;4947920;28;20148;-63
2021/05/02 12:17:09;;;;;;;7.90;1.90;;;;;;;18.78;47.71;101870.19;4939898;28;20087;-60
2021/05/02 12:19:36;;;;;;;11.32;2.10;;;;;;;19.51;45.57;101872.16;4935692;28;20059;-66
2021/05/02 12:22:03;;;;;;;3.15;1.30;;;;;;;19.19;46.69;101863.88;4933918;28;20060;-66
2021/05/02 12:24:32;;;;;;;4.85;1.40;;;;;;;19.21;46.31;101859.31;4837080;28;20057;-70
2021/05/02 12:26:59;;;;;;;6.75;1.80;;;;;;;19.08;47.00;101861.97;4920642;28;20585;-67
2021/05/02 12:29:24;;;;;;;6.68;1.45;;;;;;;18.91;46.94;101860.47;4922918;28;20052;-73
2021/05/02 12:31:57;;;;;;;4.25;1.70;;;;;;;18.90;46.57;101855.31;4915786;28;20058;-72
2021/05/02 12:34:25;;;;;;;3.47;1.50;;;;;;;18.85;47.05;101866.22;4816613;28;4267936;-70
2021/05/02 12:37:00;;;;;;;4.17;1.57;;;;;;;18.79;46.93;101867.44;4402878;28;12756261;-71
2021/05/02 12:39:39;;;;;;;4.93;1.60;;;;;;;18.77;46.89;101863.19;5048978;28;20037;-68
2021/05/02 12:42:06;;;;;;;5.82;1.67;;;;;;;18.74;47.65;101864.25;5050109;28;20521;-67
2021/05/02 12:44:36;;;;;;;5.00;1.60;;;;;;;18.75;47.82;101865.94;5049497;28;20033;-69
2021/05/02 12:47:28;;;;;;;5.07;1.38;;;;;;;18.75;47.64;101855.38;5049097;28;20028;-69
2021/05/02 12:50:01;;;;;;;6.55;1.75;;;;;;;19.22;46.65;101855.72;5047217;28;20033;-68
2021/05/02 12:52:37;;;;;;;3.83;1.33;;;;;;;19.20;46.25;101854.97;5047267;28;20060;-65
2021/05/02 12:55:35;;;;;;;5.63;1.40;;;;;;;19.20;46.85;101855.84;5056852;28;20037;-66
2021/05/02 12:58:04;;;;;;;5.80;1.58;;;;;;;19.16;47.25;101853.50;5035824;28;20137;-67
2021/05/02 13:00:44;;;;;;;4.38;1.40;;;;;;;19.21;46.75;101843.47;5068086;28;20021;-66
2021/05/02 13:03:43;;;;;;;4.90;1.40;;;;;;;19.25;47.08;101854.66;5068666;28;20020;-66
2021/05/02 13:06:14;;;;;;;5.78;1.60;;;;;;;19.28;46.91;101849.16;5069410;28;20021;-70
2021/05/02 13:08:52;;;;;;;2.72;1.33;;;;;;;19.38;46.38;101850.22;5068821;28;20109;-65
2021/05/02 13:11:44;;;;;;;4.25;1.50;;;;;;;19.64;44.54;101847.50;5068536;28;20025;-61
2021/05/02 13:14:18;;;;;;;3.03;1.40;;;;;;;19.36;45.76;101844.19;5063841;28;20032;-65
2021/05/02 13:22:52;;;;;;;2.90;1.20;;;;;;;20.65;42.89;101844.53;5005687;27;4207683;-59
2021/05/02 13:25:23;;;;;;;3.22;1.00;;;;;;;20.42;42.98;101846.22;5130607;27;20039;-60
2021/05/02 13:27:54;;;;;;;4.03;0.85;;;;;;;20.14;44.00;101852.72;5102803;27;20378;-57
2021/05/02 13:30:28;;;;;;;1.98;0.90;;;;;;;19.86;44.51;101855.59;4743699;27;20112;-59
2021/05/02 13:33:00;;;;;;;3.33;1.00;;;;;;;19.70;44.86;101857.66;4623914;28;20084;-59
2021/05/02 13:35:27;;;;;;;2.50;0.90;;;;;;;19.56;45.16;101855.97;4790173;28;20128;-59
2021/05/02 13:37:54;;;;;;;2.03;0.70;;;;;;;19.47;45.73;101854.84;4812796;28;20915;-61
2021/05/02 13:40:19;;;;;;;2.58;0.95;;;;;;;19.40;45.63;101858.88;5095780;28;20024;-59
2021/05/02 13:42:45;;;;;;;4.25;1.08;;;;;;;19.37;45.97;101859.09;5109766;28;20051;-55
2021/05/02 13:45:14;;;;;;;3.10;0.90;;;;;;;19.31;46.39;101855.09;5110018;28;20020;-60
2021/05/02 13:47:39;;;;;;;2.67;0.90;;;;;;;19.28;45.96;101851.81;5109995;28;20096;-58
2021/05/02 13:50:07;;;;;;;3.80;1.20;;;;;;;19.29;46.18;101858.78;5109083;28;20079;-62
2021/05/02 13:52:32;;;;;;;2.33;0.88;;;;;;;19.30;46.00;101850.75;5108970;28;20450;-58
2021/05/02 13:54:58;;;;;;;4.10;0.90;;;;;;;19.32;45.87;101853.28;5109764;28;20016;-61
2021/05/02 13:57:25;;;;;;;6.25;1.10;;;;;;;19.31;46.07;101844.53;5108428;28;20031;-58
2021/05/02 13:59:51;;;;;;;1.98;0.90;;;;;;;19.34;45.04;101846.09;5109266;28;20099;-60
2021/05/02 14:02:16;;;;;;;2.78;0.80;;;;;;;19.31;45.57;101848.94;5109269;28;20126;-57
2021/05/02 14:04:45;;;;;;;4.40;1.13;;;;;;;19.37;45.96;101845.88;5108695;28;20397;-58
2021/05/02 14:07:11;;;;;;;3.40;0.98;;;;;;;19.40;45.04;101840.38;5107897;28;20030;-57
2021/05/02 14:09:37;;;;;;;2.00;1.00;;;;;;;19.40;44.79;101830.63;5108753;28;20111;-59
2021/05/02 14:12:02;;;;;;;1.65;0.90;;;;;;;19.46;44.53;101837.28;5108981;28;20466;-61
2021/05/02 14:14:28;;;;;;;4.18;1.20;;;;;;;19.43;44.19;101848.09;5108181;28;20087;-60
2021/05/02 14:16:53;;;;;;;3.72;1.25;;;;;;;19.40;45.02;101848.28;5108458;28;20039;-59
2021/05/02 14:19:19;;;;;;;4.10;1.10;;;;;;;19.38;45.81;101850.22;5108602;28;20463;-59
2021/05/02 14:21:49;;;;;;;4.07;1.02;;;;;;;19.46;45.22;101852.31;5108855;28;20092;-59
2021/05/02 14:24:18;;;;;;;2.40;0.93;;;;;;;19.45;45.44;101854.09;5108259;28;20028;-60
2021/05/02 14:26:43;;;;;;;4.55;1.17;;;;;;;19.39;45.74;101854.53;5108910;28;20016;-60
2021/05/02 14:29:12;;;;;;;4.05;0.95;;;;;;;19.42;45.80;101854.31;5108822;28;20065;-58
2021/05/02 14:31:37;;;;;;;2.20;0.88;;;;;;;19.38;46.06;101863.44;5108036;28;20047;-61
2021/05/02 14:34:10;;;;;;;1.50;0.75;;;;;;;19.45;46.09;101862.03;5096401;28;20097;-58
2021/05/02 14:36:36;;;;;;;3.35;1.02;;;;;;;19.40;46.27;101851.78;5094809;28;20068;-59
2021/05/02 14:39:02;;;;;;;3.50;1.23;;;;;;;19.48;46.50;101859.16;5094474;28;20085;-60
2021/05/02 14:41:28;;;;;;;6.82;1.30;;;;;;;19.54;45.67;101848.16;5094953;28;20496;-61
2021/05/02 14:43:54;;;;;;;3.08;1.10;;;;;;;19.62;45.96;101857.34;5095182;28;20413;-61
2021/05/02 14:46:20;;;;;;;3.03;0.85;;;;;;;19.67;46.06;101861.34;5093740;28;20047;-58
2021/05/02 14:48:48;;;;;;;2.47;1.20;;;;;;;19.75;46.00;101856.34;5094983;28;20379;-60
2021/05/02 14:51:15;;;;;;;3.60;1.40;;;;;;;19.84;45.56;101851.41;5094240;28;20442;-60
2021/05/02 14:53:43;;;;;;;3.00;1.00;;;;;;;19.87;45.59;101851.19;5094274;28;20024;-59
2021/05/02 14:56:09;;;;;;;3.67;0.98;;;;;;;19.84;45.83;101852.22;5094744;28;20427;-59
2021/05/02 14:58:34;;;;;;;2.88;1.00;;;;;;;19.93;45.20;101856.00;5094572;28;20024;-60
2021/05/02 15:01:02;;;;;;;5.50;1.05;;;;;;;19.86;45.29;101858.25;5093972;28;20423;-60
2021/05/02 15:03:28;;;;;;;4.47;0.80;;;;;;;19.81;45.41;101856.91;5093976;28;20052;-59
2021/05/02 15:05:53;;;;;;;3.40;1.00;;;;;;;19.79;45.69;101869.38;5094381;28;20142;-58
2021/05/02 15:08:19;;;;;;;4.72;1.02;;;;;;;19.70;46.03;101863.78;5094270;28;20028;-60
2021/05/02 15:10:44;;;;;;;3.35;1.23;;;;;;;19.66;46.38;101866.75;5094537;28;20119;-58
2021/05/02 15:13:11;;;;;;;4.38;1.02;;;;;;;19.62;46.78;101868.78;5093864;28;20032;-59
2021/05/02 15:15:37;;;;;;;3.28;1.00;;;;;;;19.62;46.78;101870.56;5094092;28;20445;-57
2021/05/02 15:18:04;;;;;;;1.88;0.90;;;;;;;19.69;46.09;101877.97;5094202;28;20031;-59
2021/05/02 15:20:29;;;;;;;2.78;0.90;;;;;;;19.77;46.07;101868.66;5091828;28;20488;-59
2021/05/02 15:22:54;;;;;;;4.72;1.45;;;;;;;19.85;46.16;101879.50;5093339;28;20131;-58
2021/05/02 15:25:20;;;;;;;2.58;1.30;;;;;;;19.91;46.16;101877.25;5093914;28;20055;-60
2021/05/02 15:27:45;;;;;;;3.60;1.00;;;;;;;19.91;45.79;101874.63;5093540;28;20081;-60
2021/05/02 15:30:12;;;;;;;2.40;1.08;;;;;;;19.89;46.10;101873.91;5094000;28;20073;-60
2021/05/02 15:32:41;;;;;;;5.57;1.10;;;;;;;19.85;46.32;101872.44;5093698;28;20072;-60
2021/05/02 15:35:08;;;;;;;3.28;1.08;;;;;;;19.79;46.13;101880.81;5093220;28;20115;-59
2021/05/02 15:37:34;;;;;;;3.95;0.90;;;;;;;19.75;46.41;101884.59;5093678;28;20146;-58
2021/05/02 15:40:02;;;;;;;1.73;0.80;;;;;;;19.72;46.69;101887.47;5093965;28;20459;-61
2021/05/02 15:42:28;;;;;;;3.90;1.10;;;;;;;19.72;46.50;101888.28;5091788;28;20028;-59
2021/05/02 15:44:53;;;;;;;3.95;0.98;;;;;;;19.69;46.43;101879.75;5092893;28;20462;-59
2021/05/02 15:47:22;;;;;;;3.72;1.00;;;;;;;19.65;46.35;101886.22;5092302;28;20086;-59
2021/05/02 15:49:53;;;;;;;3.50;1.30;;;;;;;19.90;48.44;101880.03;5092757;28;20020;-60
2021/05/02 15:52:19;;;;;;;4.30;1.23;;;;;;;20.18;44.43;101891.25;5093173;28;20024;-61
2021/05/02 15:54:44;;;;;;;4.03;1.00;;;;;;;20.07;44.70;101889.38;5093616;28;20020;-61
2021/05/02 15:57:13;;;;;;;3.55;1.45;;;;;;;19.97;45.26;101893.69;5092351;28;20080;-61
2021/05/02 15:59:38;;;;;;;5.22;1.40;;;;;;;19.91;45.74;101887.00;5070028;28;20043;-60
2021/05/02 16:02:03;;;;;;;2.65;1.10;;;;;;;19.90;44.32;101887.97;5062477;28;20105;-61
2021/05/02 16:04:29;;;;;;;6.25;1.90;;;;;;;19.89;44.71;101884.47;5052147;28;20037;-61
2021/05/02 16:06:57;;;;;;;5.47;1.77;;;;;;;19.88;43.99;101889.88;5053038;28;20379;-61
2021/05/02 16:09:23;;;;;;;5.45;2.28;;;;;;;19.92;44.40;101889.53;5051816;28;20056;-61
2021/05/02 16:11:48;;;;;;;6.55;3.63;;;;;;;19.91;44.14;101889.66;5083395;28;163332;-59
2021/05/02 16:14:14;;;;;;;7.25;4.05;;;;;;;19.89;45.25;101887.13;5092684;28;20035;-60
2021/05/02 16:16:39;;;;;;;7.65;3.95;;;;;;;19.85;45.11;101892.75;5092818;28;20162;-61
2021/05/02 16:19:05;;;;;;;7.07;3.83;;;;;;;19.87;44.95;101891.69;5093037;28;20024;-60
2021/05/02 16:21:32;;;;;;;6.70;4.07;;;;;;;19.83;45.24;101886.72;5092128;28;20096;-60
2021/05/02 16:23:59;;;;;;;9.02;4.88;;;;;;;19.81;44.92;101889.47;5092157;28;20076;-60
2021/05/02 16:26:25;;;;;;;10.60;5.53;;;;;;;19.83;44.78;101890.22;5092707;28;20144;-61
2021/05/02 16:28:51;;;;;;;12.23;5.47;;;;;;;19.92;45.21;101894.00;5093115;28;20054;-62
2021/05/02 16:31:16;;;;;;;6.60;4.78;;;;;;;20.01;44.96;101895.13;5089910;28;20039;-62
2021/05/02 16:33:42;;;;;;;7.97;4.25;;;;;;;20.06;45.50;101892.97;5093769;28;20105;-65
2021/05/02 16:36:08;;;;;;;12.48;4.88;;;;;;;20.07;45.30;101882.28;5093031;28;20115;-60
2021/05/02 16:38:36;;;;;;;7.45;3.92;;;;;;;20.13;45.34;101893.41;5092958;28;20031;-64
2021/05/02 16:41:02;;;;;;;8.40;4.55;;;;;;;20.15;44.44;101889.66;5093580;28;20123;-60
2021/05/02 16:43:29;;;;;;;7.43;3.75;;;;;;;20.20;44.45;101894.63;5050422;28;359031;-63
2021/05/02 16:45:57;;;;;;;8.15;3.60;;;;;;;20.22;45.33;101892.69;5092107;28;20016;-63
2021/05/02 16:48:23;;;;;;;9.35;3.55;;;;;;;20.23;45.04;101889.94;5067553;28;20048;-61
2021/05/02 16:50:48;;;;;;;9.20;3.25;;;;;;;20.22;44.35;101895.34;5105500;28;20012;-62
2021/05/02 16:53:14;;;;;;;5.47;1.80;;;;;;;20.62;44.26;101889.75;5091651;28;20020;-59
2021/05/02 16:55:39;;;;;;;3.45;1.33;;;;;;;20.76;43.37;101886.06;5093162;28;20379;-59
2021/05/02 16:58:05;;;;;;;3.70;1.27;;;;;;;20.79;42.63;101897.28;5092657;28;20020;-61
2021/05/02 17:00:31;;;;;;;2.20;1.02;;;;;;;20.70;42.68;101887.38;5090242;28;20126;-58
2021/05/02 17:02:56;;;;;;;2.05;1.00;;;;;;;20.63;42.60;101902.00;5069269;28;20177;-62
2021/05/02 17:05:22;;;;;;;3.38;1.00;;;;;;;20.58;42.86;101898.88;5072288;28;20097;-59
2021/05/02 17:07:50;;;;;;;2.60;1.00;;;;;;;20.51;42.63;101901.13;5070280;28;20517;-60
2021/05/02 17:10:17;;;;;;;2.38;1.00;;;;;;;20.45;42.70;101901.59;5071833;28;20055;-59
2021/05/02 17:12:43;;;;;;;2.85;1.00;;;;;;;20.40;42.73;101904.56;5071519;28;20079;-58
2021/05/02 17:15:11;;;;;;;2.75;0.90;;;;;;;20.35;42.78;101904.09;5072579;28;20036;-59
2021/05/02 17:17:44;;;;;;;2.70;0.90;;;;;;;20.30;42.69;101899.13;5071987;28;20025;-59
2021/05/02 17:20:12;;;;;;;2.42;0.73;;;;;;;20.30;42.44;101891.19;5071496;28;20032;-59
2021/05/02 17:22:38;;;;;;;2.67;0.80;;;;;;;20.28;42.44;101903.69;5071631;28;20044;-61
2021/05/02 17:25:08;;;;;;;2.15;0.77;;;;;;;20.32;42.21;101911.41;5072020;28;20024;-59
2021/05/02 17:27:34;;;;;;;2.10;0.60;;;;;;;20.30;42.18;101909.72;5071314;28;20039;-59
2021/05/02 17:29:59;;;;;;;2.17;0.70;;;;;;;20.29;42.21;101905.38;5071786;28;20059;-59
2021/05/02 17:32:25;;;;;;;1.65;0.70;;;;;;;20.28;42.21;101905.47;5071682;28;20106;-58
2021/05/02 17:34:54;;;;;;;2.58;0.73;;;;;;;20.25;42.14;101906.56;5071278;28;20021;-58
2021/05/02 17:37:19;;;;;;;1.35;0.70;;;;;;;20.25;42.14;101905.69;5071721;28;20021;-58
2021/05/02 17:39:47;;;;;;;0.85;0.50;;;;;;;20.27;42.58;101909.94;5071712;28;20276;-58
2021/05/02 17:42:14;;;;;;;1.35;0.60;;;;;;;20.31;42.57;101907.91;5070664;28;20052;-58
2021/05/02 17:44:41;;;;;;;3.30;0.60;;;;;;;20.31;42.85;101894.66;5071684;28;20043;-59
2021/05/02 17:47:06;;;;;;;1.63;0.60;;;;;;;20.42;43.13;101915.06;5071652;28;20356;-59
2021/05/02 17:49:33;;;;;;;3.25;0.70;;;;;;;20.40;43.05;101904.56;5071209;28;20947;-58
2021/05/02 17:51:59;;;;;;;2.83;0.70;;;;;;;20.45;43.18;101906.88;5072414;28;20031;-60
2021/05/02 17:54:25;;;;;;;2.50;0.77;;;;;;;20.44;43.27;101905.19;5071937;28;20371;-58
2021/05/02 17:56:52;;;;;;;2.20;0.70;;;;;;;20.44;43.53;101916.66;5033218;28;20049;-58
2021/05/02 17:59:22;;;;;;;1.08;0.50;;;;;;;20.42;43.09;101907.94;5072936;28;20032;-62
2021/05/02 18:01:49;;;;;;;2.13;0.60;;;;;;;20.44;43.51;101911.34;5071874;28;20031;-58
2021/05/02 18:04:15;;;;;;;2.28;0.75;;;;;;;20.46;43.35;101912.06;5072290;28;20028;-59
2021/05/02 18:06:41;;;;;;;1.27;0.60;;;;;;;20.46;43.41;101912.06;5072683;28;20020;-59
2021/05/02 18:09:09;;;;;;;1.45;0.55;;;;;;;20.46;43.67;101912.06;5074859;28;20028;-59
2021/05/02 18:11:35;;;;;;;1.27;0.50;;;;;;;20.44;43.43;101913.13;5075774;28;20017;-62
2021/05/02 18:14:01;;;;;;;2.83;0.55;;;;;;;20.45;43.68;101915.66;5075743;28;20043;-59
2021/05/02 18:16:27;;;;;;;0.75;0.43;;;;;;;20.44;43.81;101915.78;5075097;28;20029;-58
2021/05/02 18:18:53;;;;;;;2.47;0.57;;;;;;;20.45;43.72;101922.78;5075726;28;20115;-59
2021/05/02 18:21:19;;;;;;;1.25;0.40;;;;;;;20.47;43.38;101927.00;5075046;28;20127;-59
2021/05/02 18:23:44;;;;;;;1.15;0.60;;;;;;;20.48;43.55;101925.19;5075534;28;20484;-60
2021/05/02 18:26:10;;;;;;;2.00;0.60;;;;;;;20.50;43.47;101930.38;5076234;28;20020;-60
2021/05/02 18:28:36;;;;;;;2.88;0.60;;;;;;;20.50;43.45;101928.56;5075821;28;20024;-59
2021/05/02 18:31:02;;;;;;;1.27;0.57;;;;;;;20.50;43.64;101930.38;5056120;28;20033;-59
2021/05/02 18:33:44;;;;;;;;;;;;;;;;;;;;;
2021/05/02 18:36:12;;;;;;;1.15;0.50;;;;;;;20.48;43.65;101941.91;5084337;28;20032;-60
2021/05/02 18:38:38;;;;;;;1.63;0.60;;;;;;;20.51;43.69;101945.31;5094942;28;20024;-59
2021/05/02 18:41:06;;;;;;;2.17;0.60;;;;;;;20.52;44.07;101945.22;5094433;28;20088;-58
2021/05/02 18:43:31;;;;;;;1.83;0.50;;;;;;;20.53;43.84;101944.22;5094761;28;20048;-59
2021/05/02 18:46:04;;;;;;;1.20;0.43;;;;;;;20.57;43.51;101950.13;5094814;28;20121;-58
2021/05/02 18:48:42;;;;;;;2.03;0.50;;;;;;;20.57;43.83;101951.00;5095244;28;20047;-60
2021/05/02 18:51:07;;;;;;;1.05;0.60;;;;;;;20.57;43.67;101955.44;5094796;28;20024;-61
2021/05/02 18:53:33;;;;;;;1.15;0.55;;;;;;;20.51;43.88;101954.09;5095188;28;20028;-58
2021/05/02 18:56:01;;;;;;;1.05;0.60;;;;;;;20.53;44.11;101962.75;5095688;28;20420;-56
2021/05/02 18:58:27;;;;;;;1.95;0.57;;;;;;;20.52;44.26;101968.19;5094056;28;20043;-59
2021/05/02 19:00:53;;;;;;;2.00;0.60;;;;;;;20.49;44.07;101969.25;5085913;28;20449;-58
2021/05/02 19:03:22;;;;;;;4.72;1.35;;;;;;;20.55;44.38;101971.44;5055091;28;20064;-59
2021/05/02 19:05:50;;;;;;;5.03;1.60;;;;;;;20.60;44.86;101973.75;5094587;28;20034;-58
2021/05/02 19:08:16;;;;;;;7.90;2.00;;;;;;;20.63;46.10;101979.69;5095607;28;20050;-59
2021/05/02 19:10:43;;;;;;;6.22;1.90;;;;;;;20.62;46.14;101982.44;5095240;28;20032;-58
2021/05/02 19:13:08;;;;;;;5.72;2.03;;;;;;;20.62;46.24;101977.97;5094788;28;20074;-59
2021/05/02 19:15:34;;;;;;;7.88;2.13;;;;;;;20.63;46.32;101979.69;5094853;28;20028;-59
2021/05/02 19:17:59;;;;;;;5.25;2.00;;;;;;;20.60;46.13;101987.84;5094566;28;20032;-59
2021/05/02 19:20:27;;;;;;;4.78;2.00;;;;;;;20.57;46.17;101984.56;5094131;28;20052;-59
2021/05/02 19:22:53;;;;;;;6.20;1.77;;;;;;;20.50;46.40;101983.34;5094962;28;20048;-58
2021/05/02 19:25:18;;;;;;;6.45;2.20;;;;;;;20.50;46.23;101989.47;5094361;28;20110;-58
2021/05/02 19:27:44;;;;;;;5.68;1.70;;;;;;;20.48;46.80;101996.69;5094146;28;20020;-63
2021/05/02 19:30:13;;;;;;;5.53;1.90;;;;;;;20.45;46.40;101997.75;5094788;28;20028;-58
2021/05/02 19:32:39;;;;;;;5.28;1.80;;;;;;;20.47;46.58;101993.22;5057736;27;20491;-59
2021/05/02 19:35:07;;;;;;;7.35;2.00;;;;;;;20.51;46.92;102000.94;5094042;28;20027;-58
2021/05/02 19:37:35;;;;;;;5.32;2.05;;;;;;;20.53;46.15;102004.31;5094871;28;20229;-60
2021/05/02 19:40:11;;;;;;;6.20;1.90;;;;;;;20.48;46.09;101994.88;5095135;28;20440;-60
2021/05/02 19:42:46;;;;;;;5.35;1.90;;;;;;;20.51;45.82;102001.75;5093880;28;20475;-58
2021/05/02 19:45:12;;;;;;;5.18;1.75;;;;;;;20.51;46.16;102001.75;5094422;28;20484;-58
2021/05/02 19:47:40;;;;;;;5.50;1.77;;;;;;;20.49;46.44;102001.03;5094064;28;20022;-59
2021/05/02 19:50:06;;;;;;;5.38;1.85;;;;;;;20.43;46.31;101999.69;5094768;28;20042;-58
2021/05/02 19:52:35;;;;;;;5.78;2.00;;;;;;;20.41;46.88;102004.25;5062572;28;20048;-60
2021/05/02 19:55:03;;;;;;;5.28;1.98;;;;;;;20.43;46.09;102004.13;5064813;28;33609;-57
2021/05/02 19:57:35;;;;;;;5.18;1.90;;;;;;;20.43;46.27;102010.25;5040031;28;20032;-59
2021/05/02 20:00:05;;;;;;;3.88;1.65;;;;;;;20.43;45.92;102007.63;5074638;28;20020;-59
2021/05/02 20:02:30;;;;;;;5.75;1.60;;;;;;;20.50;46.55;102015.94;5074498;28;20031;-59
2021/05/02 20:04:56;;;;;;;3.83;1.65;;;;;;;20.53;45.99;102012.25;5075391;28;20024;-59
2021/05/02 20:07:24;;;;;;;4.60;1.60;;;;;;;20.51;46.03;102015.00;5075143;28;20126;-59
2021/05/02 20:09:50;;;;;;;4.35;1.48;;;;;;;20.55;46.44;102018.25;5074253;28;20422;-61
2021/05/02 20:12:18;;;;;;;5.40;1.90;;;;;;;20.52;46.40;102016.72;5074573;28;20123;-58
2021/05/02 20:14:44;;;;;;;5.07;1.70;;;;;;;20.44;46.46;102017.25;5074452;28;20017;-59
2021/05/02 20:17:15;;;;;;;4.13;1.50;;;;;;;20.46;45.62;102017.97;5073477;28;20027;-59
2021/05/02 20:19:43;;;;;;;3.50;1.50;;;;;;;20.47;45.43;102019.69;5074762;28;20021;-60
2021/05/02 20:22:08;;;;;;;4.20;1.45;;;;;;;20.49;45.22;102024.88;5073764;28;20051;-61
2021/05/02 20:24:35;;;;;;;3.90;1.73;;;;;;;20.51;45.19;102030.06;5070564;28;20808;-60
2021/05/02 20:27:01;;;;;;;4.10;1.50;;;;;;;20.48;45.72;102034.59;5073676;28;20119;-59
2021/05/02 20:29:27;;;;;;;4.85;1.63;;;;;;;20.47;45.48;102034.72;5073385;28;20032;-59
2021/05/02 20:31:52;;;;;;;6.25;1.70;;;;;;;20.49;45.76;102043.41;5072949;28;20384;-58
2021/05/02 20:34:18;;;;;;;4.47;1.60;;;;;;;20.48;46.47;102033.75;5073065;28;20029;-73
2021/05/02 20:36:43;;;;;;;5.85;1.55;;;;;;;20.50;46.22;102044.25;5072334;28;20020;-70
2021/05/02 20:39:16;;;;;;;5.13;1.40;;;;;;;20.48;46.68;102045.19;5073134;28;20452;-68
2021/05/02 20:41:42;;;;;;;7.95;1.80;;;;;;;20.46;47.00;102038.34;5073457;28;20024;-68
2021/05/02 20:44:11;;;;;;;3.38;1.27;;;;;;;20.43;46.93;102036.75;5072212;28;20047;-69
2021/05/02 20:46:40;;;;;;;3.88;1.70;;;;;;;20.36;46.62;102024.06;5073139;28;20050;-67
2021/05/02 20:49:07;;;;;;;7.95;1.60;;;;;;;20.33;46.62;102035.72;5072750;28;20032;-69
2021/05/02 20:51:36;;;;;;;4.13;1.70;;;;;;;20.34;46.75;102042.69;5071670;28;20043;-70
2021/05/02 20:54:07;;;;;;;5.20;1.75;;;;;;;20.27;46.85;102031.72;5072420;28;20056;-70
2021/05/02 20:56:40;;;;;;;5.13;1.55;;;;;;;20.31;46.54;102042.91;5074238;28;20029;-69
2021/05/02 20:59:05;;;;;;;5.25;1.70;;;;;;;20.33;46.98;102048.09;5073105;28;20027;-69
2021/05/02 21:01:31;;;;;;;5.13;1.60;;;;;;;20.34;46.37;102047.16;5072574;28;20024;-69
2021/05/02 21:03:56;;;;;;;3.45;1.38;;;;;;;20.29;46.20;102048.31;5072443;28;20024;-71
2021/05/02 21:06:22;;;;;;;4.82;1.60;;;;;;;20.27;46.03;102049.41;5071627;28;20026;-71
2021/05/02 21:08:52;;;;;;;3.80;1.67;;;;;;;20.24;46.42;102042.50;5072698;28;20107;-70
2021/05/02 21:11:18;;;;;;;7.68;1.50;;;;;;;20.16;46.00;102038.75;5072325;28;20024;-71
2021/05/02 21:13:44;;;;;;;4.40;1.45;;;;;;;20.18;46.14;102053.53;5071667;28;20025;-69
2021/05/02 21:16:10;;;;;;;4.85;1.52;;;;;;;20.10;46.33;102045.28;5072015;28;20470;-70
2021/05/02 21:18:35;;;;;;;3.25;1.40;;;;;;;20.08;46.48;102053.34;5072222;28;20042;-69
2021/05/02 21:21:01;;;;;;;3.60;1.38;;;;;;;20.06;46.53;102063.19;5071341;28;20510;-71
2021/05/02 21:23:27;;;;;;;4.38;1.55;;;;;;;20.02;46.25;102064.34;5072268;28;20112;-71
2021/05/02 21:25:52;;;;;;;5.03;1.42;;;;;;;20.05;47.31;102071.25;5070461;28;20028;-59
2021/05/02 21:28:18;;;;;;;2.95;1.08;;;;;;;19.99;46.05;102071.66;5071951;28;20051;-57
2021/05/02 21:30:55;;;;;;;4.28;1.40;;;;;;;19.90;46.00;102066.06;5071954;28;20054;-58
2021/05/02 21:33:21;;;;;;;2.92;1.30;;;;;;;19.87;45.92;102068.09;5070341;28;20051;-57
2021/05/02 21:35:46;;;;;;;3.88;1.48;;;;;;;19.83;45.79;102074.53;5072124;28;20479;-56
2021/05/02 21:38:12;;;;;;;3.90;1.42;;;;;;;19.74;46.13;102057.47;5071865;28;20060;-56
2021/05/02 21:40:37;;;;;;;3.10;1.40;;;;;;;19.72;46.51;102067.31;5071117;28;20074;-58
2021/05/02 21:43:06;;;;;;;3.80;1.20;;;;;;;19.70;46.18;102074.50;5072906;28;20571;-57
2021/05/02 21:45:31;;;;;;;5.55;1.60;;;;;;;19.65;46.55;102072.19;5075633;28;20021;-56
2021/05/02 21:47:57;;;;;;;4.65;1.70;;;;;;;19.60;46.23;102071.66;5075048;28;20090;-58
2021/05/02 21:50:22;;;;;;;4.28;1.60;;;;;;;19.56;46.54;102071.00;5075683;28;20107;-58
2021/05/02 21:52:52;;;;;;;3.88;1.40;;;;;;;19.52;46.77;102066.88;5076002;28;20082;-57
2021/05/02 21:55:21;;;;;;;4.97;1.30;;;;;;;19.51;46.49;102077.56;5075165;28;20107;-57